Strona główna
METAR-TAF:

METAR-TAF

Lotnisko :

Dalcahue, Chile

Szerokość geograficzna: 42-20-25S, Długość geograficzna: 073-42-56W, wysokość: 161 m

Aktualna obserwacja pogody

Raport powstał 38 minut temu, godzina 13:00 UTC
Wiatr 14 kt od północ
Temperatura 7°C
Wilgotność 93%
Ciśnienie 1000 hPa
Widzialność: 8000 m
Rozproszone chmury na wysokości 500 ft
Zachmurzenie całkowite na wysokości 1000 ft
słaby przelotny opad deszczu,

METAR: SCPQ 211300Z 01014KT 8000 -SHRA SCT005 OVC010 07/06 Q1000

czas: 09:38 (13:38 UTC)

Prognoza

Raport powstał 2 godziny i 34 minut temu, godzina 11:04 UTC
Prognoza ważna od 21 godzina 12 UTC do 21 godzina 24 UTC
Wiatr 10 kt od północ
Widzialność: 7000 m
Zachmurzenie całkowite na wysokości 600 ft
słaby przelotny opad deszczu
Stopniowe zmiany
od 21 godzina 14 UTC do 21 godzina 16 UTC
Widzialność 10 km lub więcej
Przerywane chmury na wysokości 3500 ft

TAF: SCPQ 211104Z 2112/2124 35010KT 7000 -SHRA OVC006 TN07/2112Z TX09/2119Z BECMG 2114/2116 9999 NSW BKN035

Obserwacja i prognoza pogody dla ponad 4000 lotnisk (raport METAR i TAF).

Dostępne stacje oznaczono żółtymi i czerwonymi punktami na mapie.

Najedź kursorem aby zobaczyć nazwę stacji.

Kliknij aby zobaczyć obserwacje i prognozy pogody.

Aby zmienić mapę: kliknij na zielony przycisk z czarnym krzyżykiem, aby powiększyć; na zielony przycisk z myślnikiem, aby pomniejszyć; na zielone strzałki, aby przejść do map sąsiednich.


METAR-TAF: